Omak, WA

7:20 AM PDT on September 30, 2014 (GMT -0700)
Omak | Change Station
CLOSE
Current Station
Airport
Location: Omak,
Elevation: 1302 ft
Nearby Weather Stations

Elev 1302 ft 48.46 °N, 119.52 °W | Updated 27 minutes ago

Clear
Clear
47 °F
Feels Like 47 °F
N
5
Wind Variable Wind from West

Today
High -- | Low -- °F
--% Chance of Precip.
Yesterday
High -- | Low -- °F
Precip. -- in
6:56 AM 6:38 PM
Waxing Crescent, 37% visible
Pressure 29.86 in
Visibility 10.0 miles
Clouds Clear
Dew Point 35 °F
Humidity 63%
Rainfall 0.00 in
Snow Depth 0 in , 0 in , 1 in
UV 0 out of 12
Pollen 4.90 out of 12
Air Quality Not available.
Flu Activity Not available.
METAR KOMK 301353Z AUTO 28004KT 10SM CLR 08/02 A2985 RMK AO2 SLP109 T00830017

More Conditions Fewer Conditions

Pressure 29.86 in
Visibility 10.0 miles
Clouds Clear
Dew Point 35 °F
Humidity 63%
Rainfall 0.00 in
Snow Depth 0 in , 0 in , 1 in
UV 0 out of 12
Pollen 4.90 out of 12
Air Quality Not available.
Flu Activity Not available.
METAR KOMK 301353Z AUTO 28004KT 10SM CLR 08/02 A2985 RMK AO2 SLP109 T00830017

More Conditions Fewer Conditions

10-Day Weather Forecast

Almanac

Astronomy

Sep. 30, 2014 Rise Set
Actual Time 6:56 AM PDT 6:38 PM PDT
Civil Twilight 6:25 AM PDT 7:10 PM PDT
Nautical Twilight 5:48 AM PDT 7:46 PM PDT
Astronomical Twilight 5:11 AM PDT 8:23 PM PDT
Moon 1:30 PM PDT 10:52 PM PDT
Length of Visible Light 12h 45m
Length of Day
11h 42m
Tomorrow will be 3m 30s shorter.
Waxing Crescent, 37% of the Moon is Illuminated
Today
Waxing Crescent
Oct 1
First Quarter
Oct 8
Full
Oct 15
Last Quarter
Oct 23
New

Today's Extremes

State Highs State Lows

Community

WunderPhotos

Upload Photos

1,757,643 photos uploaded!

Nearby

Snow Depth

Station Depth Elevation
Skookum Creek 0 in 3920 ft
Lone Pine 0 in 3800 ft
Surprise Lakes 1 in 4250 ft
Harts Pass 0 in 6500 ft
Dungeness 0 in 4100 ft

Earthquake Activity

City Distance Mag. Time & Date
No recent earthquake activity has been reported nearby.
Minimum magnitude displayed is 2.5.

Coastal Water Temperatures

Place Temperature
No Stations Reporting

Nearby Weather Stations